createdAt,value
2022-12-08T00:01:45.162Z,61.50
2022-12-08T00:04:16.145Z,57.80
2022-12-08T00:07:04.026Z,50.80
2022-12-08T00:09:41.824Z,61.70
2022-12-08T00:12:17.384Z,65.10
2022-12-08T00:14:47.994Z,64.40
2022-12-08T00:17:20.566Z,97.80
2022-12-08T00:19:50.758Z,65.60
2022-12-08T00:22:22.316Z,62.20
2022-12-08T00:24:54.225Z,59.20
2022-12-08T00:27:23.571Z,58.40
2022-12-08T00:29:52.690Z,61.00
2022-12-08T00:32:22.467Z,56.70
2022-12-08T00:34:51.588Z,57.10
2022-12-08T00:37:20.599Z,58.10
2022-12-08T00:39:49.462Z,61.80
2022-12-08T00:42:18.457Z,72.40
2022-12-08T00:44:48.249Z,135.40
2022-12-08T00:47:22.112Z,132.10
2022-12-08T00:49:53.971Z,109.80
2022-12-08T00:52:23.160Z,95.10
2022-12-08T00:54:52.320Z,97.60
2022-12-08T00:57:21.703Z,91.70
2022-12-08T00:59:50.968Z,74.60
2022-12-08T01:02:20.100Z,60.40
2022-12-08T01:04:49.088Z,58.00
2022-12-08T01:07:18.228Z,69.80
2022-12-08T01:09:50.189Z,63.90
2022-12-08T01:12:19.235Z,64.30
2022-12-08T01:14:48.624Z,54.80
2022-12-08T01:17:17.908Z,52.00
2022-12-08T01:19:47.159Z,51.10
2022-12-08T01:22:16.232Z,47.50
2022-12-08T01:24:45.560Z,50.30
2022-12-08T01:27:17.213Z,49.20
2022-12-08T01:29:46.336Z,47.10
2022-12-08T01:32:15.692Z,46.70
2022-12-08T01:34:44.496Z,45.10
2022-12-08T01:37:13.688Z,43.90
2022-12-08T01:39:42.711Z,42.50
2022-12-08T01:42:23.081Z,41.90
2022-12-08T01:45:00.263Z,43.70
2022-12-08T01:47:46.476Z,42.10
2022-12-08T01:50:16.732Z,40.10
2022-12-08T01:52:52.240Z,40.10
2022-12-08T01:55:25.752Z,41.70
2022-12-08T01:58:00.263Z,40.10
2022-12-08T02:00:29.242Z,40.90
2022-12-08T02:03:22.234Z,41.30
2022-12-08T02:05:52.286Z,46.20
2022-12-08T02:08:22.168Z,45.20
2022-12-08T02:10:55.156Z,45.00
2022-12-08T02:13:25.495Z,45.40
2022-12-08T02:16:09.501Z,44.60
2022-12-08T02:19:33.039Z,44.60
2022-12-08T02:22:29.332Z,43.30
2022-12-08T02:25:11.603Z,45.20
2022-12-08T02:27:56.168Z,41.30
2022-12-08T02:31:02.403Z,41.20
2022-12-08T02:34:05.212Z,40.40
2022-12-08T02:36:46.739Z,40.80
2022-12-08T02:42:33.494Z,41.60
2022-12-08T02:45:22.380Z,37.50
2022-12-08T02:47:53.627Z,37.20
2022-12-08T02:50:23.166Z,36.60
2022-12-08T02:52:52.026Z,35.90
2022-12-08T02:55:29.203Z,33.80
2022-12-08T02:59:05.784Z,31.70
2022-12-08T03:02:08.271Z,34.10
2022-12-08T03:04:59.469Z,27.50
2022-12-08T03:08:03.548Z,30.40
2022-12-08T03:11:15.133Z,21.30
2022-12-08T03:13:53.734Z,27.80
2022-12-08T03:16:30.481Z,32.50
2022-12-08T03:19:17.915Z,31.60
2022-12-08T03:22:03.786Z,31.50
2022-12-08T03:24:40.600Z,29.90
2022-12-08T03:27:27.233Z,22.60
2022-12-08T03:29:59.545Z,29.10
2022-12-08T03:32:49.702Z,42.60
2022-12-08T03:35:25.178Z,34.40
2022-12-08T03:38:04.418Z,21.30
2022-12-08T03:40:33.577Z,24.70
2022-12-08T03:43:02.734Z,31.80
2022-12-08T03:45:32.058Z,29.20
2022-12-08T03:48:01.081Z,31.30
2022-12-08T03:50:30.104Z,32.50
2022-12-08T03:52:59.296Z,30.80
2022-12-08T03:55:28.663Z,28.10
2022-12-08T03:57:57.450Z,32.40
2022-12-08T04:00:26.877Z,33.70
2022-12-08T04:03:00.783Z,33.60
2022-12-08T04:05:32.737Z,27.90
2022-12-08T04:08:01.986Z,31.00
2022-12-08T04:10:31.234Z,31.40
2022-12-08T04:13:04.110Z,32.70
2022-12-08T04:15:33.091Z,30.80
2022-12-08T04:18:11.865Z,30.80
2022-12-08T04:20:45.883Z,29.60
2022-12-08T04:23:15.219Z,31.60
2022-12-08T04:25:45.049Z,28.80
2022-12-08T04:28:14.212Z,26.90
2022-12-08T04:30:46.748Z,23.70
2022-12-08T04:33:16.411Z,26.10
2022-12-08T04:35:45.851Z,25.30
2022-12-08T04:38:15.233Z,19.60
2022-12-08T04:54:47.281Z,35.50
2022-12-08T04:57:15.216Z,36.10
2022-12-08T04:59:43.371Z,35.50
2022-12-08T05:02:13.609Z,31.30
2022-12-08T05:04:42.277Z,33.50
2022-12-08T05:07:10.190Z,33.90
2022-12-08T05:09:38.089Z,32.70
2022-12-08T05:12:07.266Z,30.10
2022-12-08T05:14:34.937Z,30.20
2022-12-08T05:17:07.829Z,32.30
2022-12-08T05:19:38.918Z,28.90
2022-12-08T05:22:10.610Z,28.70
2022-12-08T05:24:47.378Z,30.10
2022-12-08T05:30:06.441Z,32.30
2022-12-08T05:32:37.566Z,29.80
2022-12-08T05:35:06.419Z,28.00
2022-12-08T05:37:38.781Z,28.60
2022-12-08T05:40:17.195Z,30.20
2022-12-08T05:42:52.606Z,22.60
2022-12-08T05:45:23.004Z,28.00
2022-12-08T05:51:00.967Z,21.40
2022-12-08T05:53:34.503Z,20.30
2022-12-08T05:56:07.129Z,18.70
2022-12-08T05:58:37.940Z,21.80
2022-12-08T06:01:07.442Z,22.40
2022-12-08T06:03:39.432Z,26.00
2022-12-08T06:06:18.260Z,26.10
2022-12-08T06:09:07.292Z,23.50
2022-12-08T06:11:34.937Z,25.10
2022-12-08T06:14:07.276Z,26.70
2022-12-08T06:16:57.043Z,27.20
2022-12-08T06:19:27.392Z,26.60
2022-12-08T06:21:56.853Z,27.80
2022-12-08T06:24:36.552Z,26.40
2022-12-08T06:27:13.091Z,28.00
2022-12-08T06:29:42.970Z,28.70
2022-12-08T06:32:16.194Z,25.60
2022-12-08T06:34:57.996Z,21.40
2022-12-08T06:37:41.841Z,24.60
2022-12-08T06:40:12.907Z,23.90
2022-12-08T06:43:06.105Z,25.70
2022-12-08T06:45:42.939Z,28.30
2022-12-08T06:48:13.891Z,23.30
2022-12-08T06:50:46.003Z,23.00
2022-12-08T06:53:21.324Z,23.70
2022-12-08T06:56:00.521Z,25.40
2022-12-08T06:58:37.707Z,26.20
2022-12-08T07:01:12.523Z,25.90
2022-12-08T07:03:48.972Z,24.90
2022-12-08T07:09:24.710Z,32.30
2022-12-08T07:11:57.194Z,38.10
2022-12-08T07:14:25.697Z,44.20
2022-12-08T07:17:08.119Z,33.20
2022-12-08T07:19:51.291Z,35.50
2022-12-08T07:22:24.145Z,33.60
2022-12-08T07:24:55.531Z,32.30
2022-12-08T07:27:40.028Z,31.10
2022-12-08T07:30:15.148Z,35.30
2022-12-08T07:32:49.631Z,34.90
2022-12-08T07:35:22.841Z,38.60
2022-12-08T07:37:57.562Z,30.30
2022-12-08T07:40:26.616Z,30.80
2022-12-08T07:46:07.327Z,31.70
2022-12-08T07:48:38.075Z,33.80
2022-12-08T07:51:13.897Z,32.50
2022-12-08T07:53:51.639Z,30.10
2022-12-08T07:56:29.405Z,31.30
2022-12-08T07:59:10.580Z,32.80
2022-12-08T08:02:13.110Z,32.80
2022-12-08T08:04:56.287Z,33.00
2022-12-08T08:07:50.513Z,34.60
2022-12-08T08:10:58.118Z,34.00
2022-12-08T08:13:31.880Z,34.40
2022-12-08T08:16:39.377Z,31.80
2022-12-08T08:19:15.398Z,35.50
2022-12-08T08:21:50.737Z,36.60
2022-12-08T08:24:27.284Z,33.70
2022-12-08T08:27:07.170Z,35.60
2022-12-08T08:29:52.917Z,32.60
2022-12-08T08:32:37.095Z,37.20
2022-12-08T08:35:16.910Z,35.10
2022-12-08T08:37:57.243Z,35.90
2022-12-08T08:40:34.318Z,33.50
2022-12-08T08:43:10.332Z,36.30
2022-12-08T08:45:43.341Z,31.90
2022-12-08T08:48:12.676Z,37.20
2022-12-08T08:50:47.702Z,35.10
2022-12-08T08:53:20.248Z,45.40
2022-12-08T08:55:56.883Z,40.30
2022-12-08T08:58:29.507Z,40.80
2022-12-08T09:01:02.972Z,43.50
2022-12-08T09:03:45.607Z,41.40
2022-12-08T09:06:21.213Z,37.60
2022-12-08T09:08:55.991Z,44.80
2022-12-08T09:11:31.013Z,40.80
2022-12-08T10:25:27.208Z,50.80
2022-12-08T10:28:03.664Z,49.10
2022-12-08T10:30:32.880Z,48.00
2022-12-08T10:33:15.077Z,51.30
2022-12-08T10:35:53.482Z,51.10
2022-12-08T10:38:31.934Z,50.90
2022-12-08T10:41:23.233Z,50.20
2022-12-08T10:44:09.810Z,45.60
2022-12-08T10:46:41.055Z,46.00
2022-12-08T10:49:14.791Z,47.60
2022-12-08T10:52:12.644Z,45.10
2022-12-08T10:54:56.759Z,42.50
2022-12-08T10:57:29.743Z,45.10
2022-12-08T11:00:31.700Z,42.50
2022-12-08T11:03:38.675Z,48.10
2022-12-08T11:06:41.975Z,49.20
2022-12-08T11:09:31.326Z,47.20
2022-12-08T11:12:21.025Z,44.70
2022-12-08T11:15:32.555Z,44.90
2022-12-08T11:18:24.158Z,42.30
2022-12-08T11:21:08.577Z,44.10
2022-12-08T11:24:12.510Z,43.10
2022-12-08T11:27:03.172Z,44.50
2022-12-08T11:29:40.506Z,45.40
2022-12-08T11:32:27.985Z,42.50
2022-12-08T11:35:43.642Z,45.20
2022-12-08T11:38:29.293Z,42.50
2022-12-08T11:45:12.210Z,40.40
2022-12-08T11:48:54.363Z,38.00
2022-12-08T11:52:21.099Z,51.20
2022-12-08T11:55:35.264Z,42.80
2022-12-08T11:58:26.606Z,38.20
2022-12-08T12:01:00.603Z,34.60
2022-12-08T12:03:49.043Z,32.10
2022-12-08T12:06:54.760Z,32.40
2022-12-08T12:10:27.843Z,30.00
2022-12-08T12:13:35.906Z,32.30
2022-12-08T12:16:25.884Z,36.00
2022-12-08T12:19:26.361Z,40.20
2022-12-08T12:21:57.110Z,41.20
2022-12-08T12:24:35.719Z,39.30
2022-12-08T12:27:16.337Z,30.40
2022-12-08T12:30:01.934Z,32.90
2022-12-08T12:32:49.265Z,30.10
2022-12-08T12:35:52.734Z,32.00
2022-12-08T12:38:56.504Z,30.70
2022-12-08T12:42:06.850Z,33.60
2022-12-08T12:49:52.622Z,30.00
2022-12-08T12:53:13.737Z,31.00
2022-12-08T12:56:25.408Z,32.60
2022-12-08T13:00:13.330Z,34.20
2022-12-08T13:03:22.842Z,35.40
2022-12-08T13:06:32.596Z,39.70
2022-12-08T13:09:55.756Z,40.60
2022-12-08T13:12:40.102Z,39.70
2022-12-08T13:15:20.978Z,39.40
2022-12-08T13:21:13.894Z,43.50
2022-12-08T13:24:29.029Z,49.20
2022-12-08T13:27:10.918Z,49.80
2022-12-08T13:30:44.552Z,35.70
2022-12-08T13:33:55.080Z,37.70
2022-12-08T13:37:22.793Z,34.00
2022-12-08T13:40:09.881Z,45.00
2022-12-08T13:43:13.538Z,40.30
2022-12-08T13:46:57.917Z,32.50
2022-12-08T13:50:54.739Z,34.70
2022-12-08T13:57:59.966Z,41.80
2022-12-08T14:00:33.034Z,38.30
2022-12-08T14:03:02.285Z,45.60
2022-12-08T14:06:11.745Z,45.70
2022-12-08T14:09:03.751Z,48.70
2022-12-08T14:11:41.667Z,43.40
2022-12-08T14:15:01.342Z,40.80
2022-12-08T14:17:22.971Z,44.90
2022-12-08T14:20:12.996Z,26.00
2022-12-08T14:22:55.456Z,34.10
2022-12-08T14:25:27.921Z,37.60
2022-12-08T14:28:06.391Z,38.50
2022-12-08T14:30:41.378Z,34.30
2022-12-08T14:33:18.972Z,26.20
2022-12-08T14:35:56.580Z,32.10
2022-12-08T14:38:27.255Z,34.00
2022-12-08T14:41:00.849Z,40.90
2022-12-08T14:43:33.858Z,40.60
2022-12-08T15:03:42.762Z,28.90
2022-12-08T15:06:16.759Z,24.60
2022-12-08T15:09:00.103Z,30.30
2022-12-08T15:11:43.162Z,24.40
2022-12-08T15:14:41.439Z,29.60
2022-12-08T15:17:39.705Z,26.70
2022-12-08T15:20:44.703Z,23.40
2022-12-08T15:23:40.746Z,24.80
2022-12-08T15:26:23.122Z,28.70
2022-12-08T15:28:55.987Z,27.00
2022-12-08T15:31:42.783Z,27.90
2022-12-08T15:34:33.846Z,28.90
2022-12-08T15:37:21.498Z,24.60
2022-12-08T15:40:09.612Z,23.90
2022-12-08T15:42:44.219Z,27.80
2022-12-08T15:45:57.456Z,31.20
2022-12-08T15:48:36.563Z,33.50
2022-12-08T15:51:11.850Z,30.70
2022-12-08T15:54:01.604Z,31.90
2022-12-08T15:58:04.601Z,33.70
2022-12-08T16:00:53.320Z,27.90
2022-12-08T16:04:19.957Z,29.30
2022-12-08T16:23:41.846Z,30.80
2022-12-08T16:27:58.954Z,27.30
2022-12-08T16:30:03.548Z,25.30
2022-12-08T16:32:39.083Z,26.90
2022-12-08T16:35:14.545Z,27.00
2022-12-08T16:37:49.700Z,24.20
2022-12-08T16:41:30.074Z,25.10
2022-12-08T16:57:56.159Z,24.60
2022-12-08T17:00:40.945Z,24.60
2022-12-08T17:03:15.655Z,24.50
2022-12-08T17:05:46.206Z,21.20
2022-12-08T17:08:16.387Z,25.50
2022-12-08T17:11:06.295Z,23.00
2022-12-08T17:13:41.221Z,26.80
2022-12-08T17:16:15.676Z,22.60
2022-12-08T17:18:45.169Z,23.10
2022-12-08T17:21:18.613Z,21.20
2022-12-08T17:23:49.403Z,20.90
2022-12-08T17:26:21.432Z,20.80
2022-12-08T17:29:00.509Z,20.50
2022-12-08T17:31:33.283Z,21.70
2022-12-08T17:34:12.563Z,20.70
2022-12-08T17:36:45.964Z,23.10
2022-12-08T17:39:19.220Z,23.50
2022-12-08T17:41:51.744Z,22.50
2022-12-08T17:44:22.075Z,22.10
2022-12-08T17:46:53.493Z,23.20
2022-12-08T17:49:30.212Z,23.30
2022-12-08T17:52:03.384Z,24.20
2022-12-08T17:54:32.759Z,24.50
2022-12-08T17:57:05.824Z,28.70
2022-12-08T17:59:35.361Z,29.80
2022-12-08T18:02:04.759Z,28.60
2022-12-08T18:04:33.769Z,28.40
2022-12-08T18:07:04.409Z,21.90
2022-12-08T18:09:35.204Z,19.20
2022-12-08T18:12:08.386Z,19.10
2022-12-08T18:14:38.241Z,17.30
2022-12-08T18:17:07.391Z,18.70
2022-12-08T18:19:36.389Z,21.30
2022-12-08T18:22:05.997Z,19.40
2022-12-08T18:24:35.129Z,19.50
2022-12-08T18:27:05.259Z,21.20
2022-12-08T18:29:34.390Z,18.70
2022-12-08T18:32:03.846Z,22.80
2022-12-08T18:34:33.452Z,23.10
2022-12-08T18:37:09.417Z,26.30
2022-12-08T18:39:42.861Z,27.30
2022-12-08T18:42:25.037Z,25.90
2022-12-08T18:45:04.768Z,24.10
2022-12-08T18:47:44.020Z,23.00
2022-12-08T18:50:16.858Z,24.90
2022-12-08T18:52:47.286Z,24.80
2022-12-08T18:55:16.554Z,25.30
2022-12-08T18:57:51.374Z,24.60
2022-12-08T19:00:25.787Z,24.80
2022-12-08T19:02:55.788Z,24.80
2022-12-08T19:05:25.316Z,23.80
2022-12-08T19:07:54.792Z,19.10
2022-12-08T19:10:29.504Z,23.40
2022-12-08T19:12:59.628Z,22.40
2022-12-08T19:15:29.503Z,24.60
2022-12-08T19:17:59.401Z,23.30
2022-12-08T19:20:29.222Z,25.30
2022-12-08T19:23:03.436Z,24.70
2022-12-08T19:25:32.287Z,22.10
2022-12-08T19:28:03.030Z,23.30
2022-12-08T19:30:36.499Z,20.60
2022-12-08T19:33:06.509Z,20.30
2022-12-08T19:35:37.196Z,20.50
2022-12-08T19:38:08.123Z,20.20
2022-12-08T19:40:56.307Z,21.80
2022-12-08T19:43:45.122Z,21.40
2022-12-08T19:46:17.746Z,23.40
2022-12-08T19:48:46.639Z,21.10
2022-12-08T19:51:16.743Z,19.60
2022-12-08T19:53:47.987Z,21.30
2022-12-08T19:58:46.855Z,21.20
2022-12-08T20:01:17.089Z,17.20
2022-12-08T20:03:47.674Z,19.10
2022-12-08T20:06:18.818Z,20.00
2022-12-08T20:08:50.777Z,21.00
2022-12-08T20:11:22.373Z,19.70
2022-12-08T20:13:51.958Z,17.60
2022-12-08T20:16:24.556Z,22.60
2022-12-08T20:18:53.826Z,20.90
2022-12-08T20:21:22.897Z,17.50
2022-12-08T20:23:52.239Z,18.50
2022-12-08T20:26:23.397Z,19.70
2022-12-08T20:28:53.279Z,19.50
2022-12-08T20:31:27.512Z,20.60
2022-12-08T20:33:57.579Z,20.80
2022-12-08T20:36:27.743Z,19.30
2022-12-08T20:38:57.861Z,20.20
2022-12-08T20:41:31.840Z,19.10
2022-12-08T20:44:06.010Z,18.40
2022-12-08T20:46:35.228Z,20.70
2022-12-08T20:49:05.145Z,21.20
2022-12-08T20:51:35.219Z,18.70
2022-12-08T20:54:05.818Z,18.40
2022-12-08T20:56:34.740Z,15.60
2022-12-08T20:59:03.659Z,16.50
2022-12-08T21:01:32.948Z,17.00
2022-12-08T21:04:02.380Z,15.60
2022-12-08T21:06:31.883Z,17.20
2022-12-08T21:09:01.241Z,17.40
2022-12-08T21:11:31.166Z,18.80
2022-12-08T21:14:00.415Z,19.40
2022-12-08T21:16:30.626Z,17.50
2022-12-08T21:19:00.017Z,16.80
2022-12-08T21:21:28.841Z,16.60
2022-12-08T21:23:57.957Z,17.20
2022-12-08T21:26:27.059Z,16.70
2022-12-08T21:28:59.385Z,17.00
2022-12-08T21:31:32.148Z,17.10
2022-12-08T21:34:02.868Z,16.30
2022-12-08T21:36:31.992Z,15.30
2022-12-08T21:39:03.004Z,15.80
2022-12-08T21:41:50.744Z,14.80
2022-12-08T21:44:20.252Z,16.10
2022-12-08T21:46:49.587Z,15.30
2022-12-08T21:49:18.628Z,16.80
2022-12-08T21:51:47.810Z,16.00
2022-12-08T21:54:19.184Z,16.80
2022-12-08T21:56:49.844Z,14.50
2022-12-08T21:59:19.926Z,16.30
2022-12-08T22:01:48.997Z,16.50
2022-12-08T22:04:19.481Z,15.70
2022-12-08T22:06:49.091Z,16.50
2022-12-08T22:09:18.196Z,16.00
2022-12-08T22:11:47.561Z,15.10
2022-12-08T22:14:21.210Z,16.20
2022-12-08T22:16:58.311Z,15.50
2022-12-08T22:19:27.815Z,14.80
2022-12-08T22:25:05.510Z,15.40
2022-12-08T22:30:11.879Z,15.70
2022-12-08T22:32:42.442Z,15.10
2022-12-08T22:35:12.054Z,15.10
2022-12-08T22:37:41.407Z,16.00
2022-12-08T22:40:14.527Z,17.10
2022-12-08T22:42:43.471Z,15.50
2022-12-08T22:45:12.700Z,15.10
2022-12-08T22:47:41.856Z,14.60
2022-12-08T22:50:11.575Z,15.50
2022-12-08T22:52:40.922Z,15.30
2022-12-08T22:55:09.970Z,14.30
2022-12-08T22:57:39.048Z,16.10
2022-12-08T23:00:11.979Z,15.20
2022-12-08T23:02:42.021Z,15.30
2022-12-08T23:05:11.701Z,15.80
2022-12-08T23:07:41.977Z,14.90
2022-12-08T23:10:11.917Z,14.20
2022-12-08T23:12:41.756Z,15.90
2022-12-08T23:15:15.154Z,15.80
2022-12-08T23:17:44.159Z,15.70
2022-12-08T23:20:13.422Z,15.90
2022-12-08T23:22:42.156Z,15.10
2022-12-08T23:25:11.280Z,15.20
2022-12-08T23:27:40.416Z,15.70
2022-12-08T23:30:12.253Z,16.70
2022-12-08T23:32:41.258Z,15.60
2022-12-08T23:35:11.011Z,16.70
2022-12-08T23:37:39.809Z,15.10
2022-12-08T23:40:09.754Z,16.10
2022-12-08T23:42:39.366Z,16.00
2022-12-08T23:45:09.585Z,16.50
2022-12-08T23:47:38.550Z,15.90
2022-12-08T23:50:08.728Z,14.80
2022-12-08T23:52:39.792Z,15.50
2022-12-08T23:57:38.827Z,15.10
